E.r. Borneo — A8SZ4 — position and weather

sailwx.info

Track history (hours):
 
Tides and Currents Weather Stations Pressure Air Temp Water Temp Dewpoint Dewpoint Depression Visibility Wind Speed Wind Dir Waves Ship Positions

E.r. Borneo

Last reported at 2016-Jul-30 16:24 UTC. Time now 2016-Aug-28 18:57 UTC.
Position N 36°38' E 123°52'.
Warning: this ship's position is 29 days out of date.

Length 292 m; draft 7.8 m.

Type: Cargo ship. MMSI: 636091797.

Date/timePositionNaut miles runAvg speedWind from/ knotsBaromVisibWave heightAir tempDewpointWater temp
2016-Jul-30 16:24N 36°38' E 123°52'911.0
2016-Jul-30 15:33N 36°46' E 123°47'1211.0
2016-Jul-30 14:28N 36°57' E 123°41'6611.1
2016-Jul-30 08:33N 37°51' E 122°53'2211.1
2016-Jul-30 06:33N 38°00' E 122°28'1110.7
2016-Jul-30 05:29N 38°05' E 122°14'1110.7
2016-Jul-30 04:28N 38°10' E 122°02'1111.0
2016-Jul-30 03:31N 38°13' E 121°50'1010.8
2016-Jul-30 02:33N 38°17' E 121°37'1410.5
2016-Jul-30 01:16N 38°23' E 121°22'710.4
2016-Jul-30 00:33N 38°26' E 121°13'1010.4
2016-Jul-29 23:33N 38°31' E 121°01'1010.3
2016-Jul-29 22:33N 38°34' E 120°49'1211.0
2016-Jul-29 21:29N 38°35' E 120°34'1010.4
2016-Jul-29 20:33N 38°37' E 120°22'1312.3
2016-Jul-29 19:28N 38°38' E 120°05'1212.6
2016-Jul-29 18:33N 38°40' E 119°50'1312.6
2016-Jul-29 17:33N 38°42' E 119°34'1212.2
2016-Jul-29 16:33N 38°44' E 119°19'1212.2
2016-Jul-29 15:33N 38°47' E 119°04'1212.1
2016-Jul-29 14:33N 38°48' E 118°48'1211.5
2016-Jul-29 13:33N 38°49' E 118°33'1111.0
2016-Jul-29 12:33N 38°50' E 118°19'20 9.8
2016-Jul-29 10:33N 38°57' E 117°56'8 7.4
2016-Jul-29 09:31N 38°59' E 117°46'0 0.0
2016-Jul-29 08:31N 38°59' E 117°46'0 0.0
2016-Jul-29 07:31N 38°59' E 117°46'0 0.0
2016-Jul-29 06:31N 38°59' E 117°46'0 0.0
2016-Jul-29 05:25N 38°59' E 117°46'0 0.0
2016-Jul-29 04:31N 38°59' E 117°46'0 0.0
2016-Jul-29 03:25N 38°59' E 117°46'0 0.0
2016-Jul-29 02:13N 38°59' E 117°46'0 0.0
2016-Jul-29 01:25N 38°59' E 117°46'0 0.0
2016-Jul-28 23:19N 38°59' E 117°46'0 0.0
2016-Jul-28 22:25N 38°59' E 117°46'0 0.0
2016-Jul-28 21:25N 38°59' E 117°46'0 0.0
2016-Jul-28 20:19N 38°59' E 117°46'0 0.0
2016-Jul-28 19:31N 38°59' E 117°46'0 0.0
2016-Jul-28 18:19N 38°59' E 117°46'0 0.0
2016-Jul-28 17:31N 38°59' E 117°46'0 0.0
2016-Jul-28 16:31N 38°59' E 117°46'0 0.0
2016-Jul-28 15:19N 38°59' E 117°46'0 0.0
2016-Jul-28 14:19N 38°59' E 117°46'0 0.0
2016-Jul-28 13:31N 38°59' E 117°46'0 0.0
2016-Jul-28 12:31N 38°59' E 117°46'0 0.0
2016-Jul-28 11:25N 38°59' E 117°46'0 0.0
2016-Jul-28 10:31N 38°59' E 117°46'2 2.3
2016-Jul-28 09:32N 38°58' E 117°49'1110.8
2016-Jul-28 08:33N 38°56' E 118°02'6 5.2
2016-Jul-28 07:30N 38°55' E 118°09'3 0.2
2016-Jul-27 18:30N 38°52' E 118°11'0 0.0
2016-Jul-27 05:05N 38°52' E 118°10'126 5.2
2016-Jul-26 04:33N 38°36' E 120°51'1313.2
2016-Jul-26 03:33N 38°32' E 121°07'1412.9
2016-Jul-26 02:28N 38°25' E 121°23'6513.1
2016-Jul-25 21:30N 37°52' E 122°35'1111.8
2016-Jul-25 20:33N 37°48' E 122°47'1511.5
2016-Jul-25 19:16N 37°38' E 123°02'1810.4
2016-Jul-25 17:30N 37°23' E 123°14'1213.0
2016-Jul-25 16:33N 37°10' E 123°14'1413.7
2016-Jul-25 15:33N 36°57' E 123°13'1414.1
2016-Jul-25 14:33N 36°44' E 123°07'1413.6
2016-Jul-25 13:33N 36°31' E 123°00'1413.6
2016-Jul-25 12:33N 36°18' E 122°54'1413.4
2016-Jul-25 11:31N 36°06' E 122°47'1413.4
2016-Jul-25 10:29N 35°53' E 122°40'1010.6
2016-Jul-25 09:33N 35°45' E 122°34'1613.7
2016-Jul-25 08:25N 35°41' E 122°15'1414.3
2016-Jul-25 07:26N 35°38' E 121°58'10813.7
2016-Jul-24 23:32N 35°14' E 119°48'1110.9
2016-Jul-24 22:33N 35°19' E 119°37'5 0.1
2016-Jul-23 07:25N 35°21' E 119°32'0 0.0
2016-Jul-22 09:12N 35°21' E 119°32'1 0.0
2016-Jul-21 17:09N 35°22' E 119°33'0 0.0
2016-Jul-21 16:27N 35°22' E 119°33'0 0.0
2016-Jul-21 08:15N 35°22' E 119°33'0 0.0
2016-Jul-21 07:09N 35°22' E 119°33'0 0.0
2016-Jul-21 06:27N 35°22' E 119°33'0 0.0
2016-Jul-21 04:33N 35°22' E 119°33'0 0.0
2016-Jul-21 03:27N 35°22' E 119°33'  
Track history (hours):
 
Tides and Currents Weather Stations Pressure Air Temp Water Temp Dewpoint Dewpoint Depression Visibility Wind Speed Wind Dir Waves Ship Positions

E.r. Borneo

Last reported at 2016-Jul-30 16:24 UTC. Time now 2016-Aug-28 18:57 UTC.
Position N 36°38' E 123°52'.
Warning: this ship's position is 29 days out of date.

Length 292 m; draft 7.8 m.

Type: Cargo ship. MMSI: 636091797.

Date/timePositionNaut miles runAvg speedWind from/ knotsBaromVisibWave heightAir tempDewpointWater temp
2016-Jul-30 16:24N 36°38' E 123°52'911.0
2016-Jul-30 15:33N 36°46' E 123°47'1211.0
2016-Jul-30 14:28N 36°57' E 123°41'6611.1
2016-Jul-30 08:33N 37°51' E 122°53'2211.1
2016-Jul-30 06:33N 38°00' E 122°28'1110.7
2016-Jul-30 05:29N 38°05' E 122°14'1110.7
2016-Jul-30 04:28N 38°10' E 122°02'1111.0
2016-Jul-30 03:31N 38°13' E 121°50'1010.8
2016-Jul-30 02:33N 38°17' E 121°37'1410.5
2016-Jul-30 01:16N 38°23' E 121°22'710.4
2016-Jul-30 00:33N 38°26' E 121°13'1010.4
2016-Jul-29 23:33N 38°31' E 121°01'1010.3
2016-Jul-29 22:33N 38°34' E 120°49'1211.0
2016-Jul-29 21:29N 38°35' E 120°34'1010.4
2016-Jul-29 20:33N 38°37' E 120°22'1312.3
2016-Jul-29 19:28N 38°38' E 120°05'1212.6
2016-Jul-29 18:33N 38°40' E 119°50'1312.6
2016-Jul-29 17:33N 38°42' E 119°34'1212.2
2016-Jul-29 16:33N 38°44' E 119°19'1212.2
2016-Jul-29 15:33N 38°47' E 119°04'1212.1
2016-Jul-29 14:33N 38°48' E 118°48'1211.5
2016-Jul-29 13:33N 38°49' E 118°33'1111.0
2016-Jul-29 12:33N 38°50' E 118°19'20 9.8
2016-Jul-29 10:33N 38°57' E 117°56'8 7.4
2016-Jul-29 09:31N 38°59' E 117°46'0 0.0
2016-Jul-29 08:31N 38°59' E 117°46'0 0.0
2016-Jul-29 07:31N 38°59' E 117°46'0 0.0
2016-Jul-29 06:31N 38°59' E 117°46'0 0.0
2016-Jul-29 05:25N 38°59' E 117°46'0 0.0
2016-Jul-29 04:31N 38°59' E 117°46'0 0.0
2016-Jul-29 03:25N 38°59' E 117°46'0 0.0
2016-Jul-29 02:13N 38°59' E 117°46'0 0.0
2016-Jul-29 01:25N 38°59' E 117°46'0 0.0
2016-Jul-28 23:19N 38°59' E 117°46'0 0.0
2016-Jul-28 22:25N 38°59' E 117°46'0 0.0
2016-Jul-28 21:25N 38°59' E 117°46'0 0.0
2016-Jul-28 20:19N 38°59' E 117°46'0 0.0
2016-Jul-28 19:31N 38°59' E 117°46'0 0.0
2016-Jul-28 18:19N 38°59' E 117°46'0 0.0
2016-Jul-28 17:31N 38°59' E 117°46'0 0.0
2016-Jul-28 16:31N 38°59' E 117°46'0 0.0
2016-Jul-28 15:19N 38°59' E 117°46'0 0.0
2016-Jul-28 14:19N 38°59' E 117°46'0 0.0
2016-Jul-28 13:31N 38°59' E 117°46'0 0.0
2016-Jul-28 12:31N 38°59' E 117°46'0 0.0
2016-Jul-28 11:25N 38°59' E 117°46'0 0.0
2016-Jul-28 10:31N 38°59' E 117°46'2 2.3
2016-Jul-28 09:32N 38°58' E 117°49'1110.8
2016-Jul-28 08:33N 38°56' E 118°02'6 5.2
2016-Jul-28 07:30N 38°55' E 118°09'3 0.2
2016-Jul-27 18:30N 38°52' E 118°11'0 0.0
2016-Jul-27 05:05N 38°52' E 118°10'126 5.2
2016-Jul-26 04:33N 38°36' E 120°51'1313.2
2016-Jul-26 03:33N 38°32' E 121°07'1412.9
2016-Jul-26 02:28N 38°25' E 121°23'6513.1
2016-Jul-25 21:30N 37°52' E 122°35'1111.8
2016-Jul-25 20:33N 37°48' E 122°47'1511.5
2016-Jul-25 19:16N 37°38' E 123°02'1810.4
2016-Jul-25 17:30N 37°23' E 123°14'1213.0
2016-Jul-25 16:33N 37°10' E 123°14'1413.7
2016-Jul-25 15:33N 36°57' E 123°13'1414.1
2016-Jul-25 14:33N 36°44' E 123°07'1413.6
2016-Jul-25 13:33N 36°31' E 123°00'1413.6
2016-Jul-25 12:33N 36°18' E 122°54'1413.4
2016-Jul-25 11:31N 36°06' E 122°47'1413.4
2016-Jul-25 10:29N 35°53' E 122°40'1010.6
2016-Jul-25 09:33N 35°45' E 122°34'1613.7
2016-Jul-25 08:25N 35°41' E 122°15'1414.3
2016-Jul-25 07:26N 35°38' E 121°58'10813.7
2016-Jul-24 23:32N 35°14' E 119°48'1110.9
2016-Jul-24 22:33N 35°19' E 119°37'5 0.1
2016-Jul-23 07:25N 35°21' E 119°32'0 0.0
2016-Jul-22 09:12N 35°21' E 119°32'1 0.0
2016-Jul-21 17:09N 35°22' E 119°33'0 0.0
2016-Jul-21 16:27N 35°22' E 119°33'0 0.0
2016-Jul-21 08:15N 35°22' E 119°33'0 0.0
2016-Jul-21 07:09N 35°22' E 119°33'0 0.0
2016-Jul-21 06:27N 35°22' E 119°33'0 0.0
2016-Jul-21 04:33N 35°22' E 119°33'0 0.0
2016-Jul-21 03:27N 35°22' E 119°33'  

Dump ship's entire track history